createdAt,value
2023-10-07T00:01:27.624Z,1.13
2023-10-07T00:04:00.020Z,2.70
2023-10-07T00:06:31.452Z,2.27
2023-10-07T00:09:00.431Z,3.23
2023-10-07T00:11:29.873Z,2.27
2023-10-07T00:13:59.520Z,1.00
2023-10-07T00:16:29.635Z,1.83
2023-10-07T00:19:01.062Z,2.73
2023-10-07T00:21:50.594Z,1.93
2023-10-07T00:24:21.117Z,1.33
2023-10-07T00:26:49.964Z,1.53
2023-10-07T00:29:22.764Z,2.10
2023-10-07T00:31:53.923Z,1.93
2023-10-07T00:34:29.011Z,1.70
2023-10-07T00:36:59.214Z,3.47
2023-10-07T00:39:32.935Z,2.93
2023-10-07T00:42:08.618Z,1.30
2023-10-07T00:44:38.932Z,1.13
2023-10-07T00:47:15.455Z,1.07
2023-10-07T00:49:53.523Z,0.47
2023-10-07T00:52:30.650Z,1.00
2023-10-07T00:55:10.048Z,0.60
2023-10-07T00:57:39.059Z,0.63
2023-10-07T01:00:33.369Z,0.97
2023-10-07T01:03:14.766Z,0.63
2023-10-07T01:05:56.773Z,0.90
2023-10-07T01:08:29.237Z,2.70
2023-10-07T01:11:09.505Z,1.87
2023-10-07T01:13:45.518Z,1.03
2023-10-07T01:16:20.893Z,1.87
2023-10-07T01:18:51.055Z,1.27
2023-10-07T01:21:32.971Z,3.03
2023-10-07T01:24:08.001Z,3.77
2023-10-07T01:26:56.285Z,2.10
2023-10-07T01:29:25.231Z,2.97
2023-10-07T01:32:01.792Z,3.37
2023-10-07T01:34:36.425Z,1.97
2023-10-07T01:37:06.540Z,4.00
2023-10-07T01:39:42.266Z,4.30
2023-10-07T01:42:14.456Z,3.43
2023-10-07T01:44:43.541Z,4.40
2023-10-07T01:47:25.466Z,3.67
2023-10-07T01:49:57.495Z,3.63
2023-10-07T01:52:28.093Z,6.87
2023-10-07T01:55:03.737Z,2.73
2023-10-07T01:57:33.141Z,3.37
2023-10-07T02:00:06.907Z,6.63
2023-10-07T02:02:50.255Z,4.87
2023-10-07T02:05:27.106Z,5.47
2023-10-07T02:07:56.771Z,8.83
2023-10-07T02:10:27.784Z,3.83
2023-10-07T02:12:56.453Z,7.90
2023-10-07T02:15:25.583Z,9.67
2023-10-07T02:17:58.073Z,9.57
2023-10-07T02:20:27.690Z,11.90
2023-10-07T02:22:57.011Z,7.57
2023-10-07T02:25:30.879Z,7.03
2023-10-07T02:27:59.911Z,11.70
2023-10-07T02:30:29.151Z,10.73
2023-10-07T02:32:57.685Z,9.73
2023-10-07T02:35:32.544Z,12.10
2023-10-07T02:38:04.621Z,9.83
2023-10-07T02:40:50.791Z,12.20
2023-10-07T02:43:19.892Z,10.90
2023-10-07T02:45:48.725Z,11.43
2023-10-07T02:48:20.952Z,11.50
2023-10-07T02:50:53.373Z,14.00
2023-10-07T02:53:22.333Z,10.53
2023-10-07T02:55:59.634Z,16.30
2023-10-07T02:58:34.187Z,10.83
2023-10-07T03:01:14.786Z,14.07
2023-10-07T03:03:50.544Z,13.93
2023-10-07T03:06:19.962Z,9.13
2023-10-07T03:08:59.419Z,12.73
2023-10-07T03:11:41.830Z,8.47
2023-10-07T03:14:15.071Z,8.47
2023-10-07T03:16:48.468Z,11.40
2023-10-07T03:19:24.270Z,8.17
2023-10-07T03:22:10.733Z,10.20
2023-10-07T03:24:43.531Z,10.67
2023-10-07T03:27:22.470Z,12.63
2023-10-07T03:30:14.254Z,11.30
2023-10-07T03:32:59.446Z,14.10
2023-10-07T03:36:08.434Z,15.23
2023-10-07T03:38:37.566Z,17.90
2023-10-07T03:41:11.090Z,12.13
2023-10-07T03:43:42.478Z,16.67
2023-10-07T03:46:12.927Z,14.40
2023-10-07T03:48:44.536Z,10.30
2023-10-07T03:51:14.276Z,11.67
2023-10-07T03:53:46.700Z,9.70
2023-10-07T03:56:16.768Z,19.27
2023-10-07T03:58:47.102Z,9.80
2023-10-07T04:01:19.483Z,10.37
2023-10-07T04:03:49.553Z,12.13
2023-10-07T04:06:18.829Z,13.60
2023-10-07T04:08:54.648Z,14.47
2023-10-07T04:11:29.612Z,9.43
2023-10-07T04:14:08.983Z,10.70
2023-10-07T04:16:38.323Z,10.87
2023-10-07T04:19:30.402Z,13.13
2023-10-07T04:22:00.622Z,9.47
2023-10-07T04:24:30.397Z,15.73
2023-10-07T04:27:04.714Z,10.67
2023-10-07T04:29:35.693Z,12.40
2023-10-07T04:32:13.058Z,13.80
2023-10-07T04:35:02.058Z,14.50
2023-10-07T04:37:48.689Z,15.73
2023-10-07T04:40:50.391Z,15.43
2023-10-07T04:43:34.052Z,13.43
2023-10-07T04:46:13.399Z,19.20
2023-10-07T04:48:55.637Z,13.93
2023-10-07T04:51:46.960Z,14.40
2023-10-07T04:54:22.265Z,15.27
2023-10-07T04:57:02.179Z,20.67
2023-10-07T04:59:30.804Z,14.43
2023-10-07T05:02:11.876Z,15.10
2023-10-07T05:04:40.975Z,13.93
2023-10-07T05:07:12.022Z,17.17
2023-10-07T05:09:40.125Z,13.70
2023-10-07T05:12:11.326Z,19.67
2023-10-07T05:14:39.204Z,10.00
2023-10-07T05:17:11.680Z,19.07
2023-10-07T05:19:41.021Z,13.03
2023-10-07T05:22:16.675Z,16.33
2023-10-07T05:24:52.848Z,15.07
2023-10-07T05:27:22.481Z,13.23
2023-10-07T05:29:51.276Z,10.77
2023-10-07T05:32:22.397Z,13.70
2023-10-07T05:34:51.508Z,16.40
2023-10-07T05:37:23.268Z,14.63
2023-10-07T05:39:53.083Z,17.87
2023-10-07T05:42:21.881Z,15.80
2023-10-07T05:44:50.842Z,16.27
2023-10-07T05:47:19.849Z,15.47
2023-10-07T05:49:51.299Z,20.00
2023-10-07T05:52:20.391Z,18.83
2023-10-07T05:54:52.422Z,21.43
2023-10-07T05:57:22.429Z,19.50
2023-10-07T05:59:52.201Z,18.90
2023-10-07T06:02:21.034Z,14.77
2023-10-07T06:04:52.942Z,17.30
2023-10-07T06:07:22.881Z,17.40
2023-10-07T06:09:53.308Z,16.83
2023-10-07T06:12:22.540Z,20.70
2023-10-07T06:14:51.396Z,17.67
2023-10-07T06:17:21.551Z,16.37
2023-10-07T06:19:52.860Z,13.07
2023-10-07T06:22:24.203Z,17.07
2023-10-07T06:24:56.623Z,17.63
2023-10-07T06:27:25.902Z,20.80
2023-10-07T06:29:56.608Z,18.37
2023-10-07T06:32:27.131Z,30.63
2023-10-07T06:34:59.049Z,13.73
2023-10-07T06:37:31.557Z,13.67
2023-10-07T06:40:01.916Z,17.80
2023-10-07T06:42:31.039Z,14.00
2023-10-07T06:45:07.885Z,15.33
2023-10-07T06:47:37.143Z,14.70
2023-10-07T06:50:09.482Z,14.13
2023-10-07T06:52:38.871Z,16.83
2023-10-07T06:55:13.717Z,16.73
2023-10-07T06:57:44.318Z,13.70
2023-10-07T07:00:23.415Z,15.87
2023-10-07T07:03:00.475Z,12.07
2023-10-07T07:05:36.412Z,16.70
2023-10-07T07:08:05.930Z,13.83
2023-10-07T07:10:34.780Z,16.27
2023-10-07T07:13:14.138Z,17.03
2023-10-07T07:15:45.140Z,16.80
2023-10-07T07:18:17.623Z,11.80
2023-10-07T07:20:51.144Z,17.07
2023-10-07T07:23:22.692Z,16.30
2023-10-07T07:25:54.854Z,16.50
2023-10-07T07:28:25.034Z,20.50
2023-10-07T07:30:54.520Z,14.63
2023-10-07T07:33:29.980Z,17.17
2023-10-07T07:36:00.376Z,15.97
2023-10-07T07:38:32.336Z,14.43
2023-10-07T07:41:07.963Z,12.07
2023-10-07T07:43:38.613Z,11.77
2023-10-07T07:46:22.768Z,13.90
2023-10-07T07:48:52.106Z,13.17
2023-10-07T07:51:25.426Z,15.07
2023-10-07T07:53:54.800Z,13.43
2023-10-07T07:56:23.870Z,10.40
2023-10-07T07:58:54.042Z,17.37
2023-10-07T08:01:29.866Z,10.67
2023-10-07T08:04:01.684Z,13.23
2023-10-07T08:06:32.729Z,8.17
2023-10-07T08:09:03.948Z,13.83
2023-10-07T08:11:36.792Z,12.03
2023-10-07T08:14:11.069Z,13.27
2023-10-07T08:16:52.550Z,11.73
2023-10-07T08:19:25.459Z,13.03
2023-10-07T08:21:56.235Z,15.57
2023-10-07T08:24:28.036Z,15.67
2023-10-07T08:27:01.169Z,12.57
2023-10-07T08:29:41.763Z,16.07
2023-10-07T08:32:15.519Z,14.53
2023-10-07T08:34:49.296Z,15.43
2023-10-07T08:37:21.269Z,13.57
2023-10-07T08:39:55.428Z,13.17
2023-10-07T08:42:27.421Z,12.43
2023-10-07T08:44:59.956Z,19.33
2023-10-07T08:47:41.173Z,14.53
2023-10-07T08:50:16.383Z,16.37
2023-10-07T08:52:47.697Z,12.70
2023-10-07T08:55:16.695Z,11.90
2023-10-07T08:57:48.339Z,18.17
2023-10-07T09:00:22.371Z,15.80
2023-10-07T09:02:54.453Z,15.63
2023-10-07T09:05:26.059Z,17.77
2023-10-07T09:07:57.550Z,16.53
2023-10-07T09:10:29.947Z,16.23
2023-10-07T09:13:05.587Z,12.50
2023-10-07T09:15:37.714Z,14.40
2023-10-07T09:18:07.063Z,19.80
2023-10-07T09:20:44.715Z,18.50
2023-10-07T09:23:21.014Z,15.33
2023-10-07T09:25:53.405Z,14.70
2023-10-07T09:28:31.252Z,18.50
2023-10-07T09:31:07.885Z,10.07
2023-10-07T09:33:39.222Z,13.20
2023-10-07T09:36:22.217Z,17.27
2023-10-07T09:39:07.005Z,19.30
2023-10-07T09:41:34.890Z,14.03
2023-10-07T09:44:05.648Z,14.77
2023-10-07T09:46:41.426Z,19.97
2023-10-07T09:49:15.927Z,13.57
2023-10-07T09:51:49.292Z,15.37
2023-10-07T09:54:37.696Z,17.40
2023-10-07T09:57:22.164Z,14.87
2023-10-07T10:00:28.168Z,13.07
2023-10-07T10:03:26.908Z,15.40
2023-10-07T10:06:09.067Z,11.90
2023-10-07T10:08:59.552Z,12.67
2023-10-07T10:11:45.765Z,15.63
2023-10-07T10:14:28.122Z,16.83
2023-10-07T10:16:59.072Z,15.43
2023-10-07T10:19:38.717Z,14.27
2023-10-07T10:22:12.555Z,14.40
2023-10-07T10:24:45.544Z,16.07
2023-10-07T10:27:18.979Z,10.17
2023-10-07T10:29:58.147Z,21.07
2023-10-07T10:32:29.949Z,16.37
2023-10-07T10:35:03.022Z,20.10
2023-10-07T10:37:33.044Z,20.07
2023-10-07T10:40:14.267Z,16.50
2023-10-07T10:42:45.816Z,19.23
2023-10-07T10:45:21.649Z,12.17
2023-10-07T10:47:52.434Z,10.77
2023-10-07T10:50:25.012Z,17.60
2023-10-07T10:52:55.858Z,17.87
2023-10-07T10:55:26.592Z,17.10
2023-10-07T10:57:57.052Z,18.33
2023-10-07T11:00:25.963Z,17.13
2023-10-07T11:02:55.510Z,19.30
2023-10-07T11:05:27.267Z,17.67
2023-10-07T11:07:56.650Z,11.40
2023-10-07T11:10:25.642Z,12.50
2023-10-07T11:12:58.505Z,11.93
2023-10-07T11:15:28.218Z,20.73
2023-10-07T11:17:59.597Z,13.77
2023-10-07T11:20:35.132Z,12.57
2023-10-07T11:23:04.165Z,11.77
2023-10-07T11:25:35.078Z,19.43
2023-10-07T11:28:10.590Z,13.67
2023-10-07T11:30:48.216Z,17.47
2023-10-07T11:33:18.671Z,12.80
2023-10-07T11:35:58.691Z,13.73
2023-10-07T11:38:27.983Z,13.13
2023-10-07T11:40:57.348Z,12.80
2023-10-07T11:43:28.923Z,13.20
2023-10-07T11:45:57.879Z,11.40
2023-10-07T11:48:26.645Z,13.53
2023-10-07T11:50:56.203Z,12.03
2023-10-07T11:53:26.485Z,13.63
2023-10-07T11:55:55.225Z,12.50
2023-10-07T11:58:25.685Z,16.87
2023-10-07T12:00:56.689Z,14.17
2023-10-07T12:03:26.646Z,15.70
2023-10-07T12:05:59.267Z,10.20
2023-10-07T12:08:28.225Z,11.47
2023-10-07T12:10:57.831Z,9.23
2023-10-07T12:13:28.582Z,13.93
2023-10-07T12:16:04.870Z,13.47
2023-10-07T12:18:35.381Z,16.83
2023-10-07T12:21:09.981Z,13.03
2023-10-07T12:23:40.232Z,10.33
2023-10-07T12:26:16.816Z,10.83
2023-10-07T12:28:50.421Z,10.67
2023-10-07T12:31:21.651Z,8.53
2023-10-07T12:33:52.036Z,9.40
2023-10-07T12:36:21.417Z,4.07
2023-10-07T12:38:50.406Z,10.27
2023-10-07T12:41:19.308Z,9.27
2023-10-07T12:43:49.011Z,9.87
2023-10-07T12:46:19.001Z,7.77
2023-10-07T12:48:51.172Z,7.20
2023-10-07T12:51:20.112Z,7.43
2023-10-07T12:53:49.092Z,7.77
2023-10-07T12:56:19.859Z,9.60
2023-10-07T12:58:49.711Z,10.60
2023-10-07T13:01:21.151Z,7.33
2023-10-07T13:03:53.584Z,11.33
2023-10-07T13:06:24.967Z,7.20
2023-10-07T13:08:55.215Z,7.83
2023-10-07T13:11:28.197Z,8.00
2023-10-07T13:13:58.571Z,10.10
2023-10-07T13:16:27.886Z,9.37
2023-10-07T13:18:58.247Z,5.50
2023-10-07T13:21:27.698Z,6.43
2023-10-07T13:23:58.140Z,5.27
2023-10-07T13:26:28.420Z,10.63
2023-10-07T13:28:57.343Z,7.27
2023-10-07T13:31:26.118Z,8.20
2023-10-07T13:33:54.829Z,8.47
2023-10-07T13:36:24.953Z,11.70
2023-10-07T13:38:53.772Z,9.17
2023-10-07T13:41:24.286Z,7.20
2023-10-07T13:43:53.574Z,7.77
2023-10-07T13:46:22.896Z,10.97
2023-10-07T13:48:51.690Z,9.67
2023-10-07T13:51:21.365Z,9.67
2023-10-07T13:54:14.671Z,11.10
2023-10-07T13:56:50.538Z,7.13
2023-10-07T13:59:19.453Z,8.33
2023-10-07T14:01:52.143Z,9.63
2023-10-07T14:04:21.475Z,7.30
2023-10-07T14:06:55.747Z,12.00
2023-10-07T14:09:26.828Z,5.63
2023-10-07T14:11:56.048Z,8.23
2023-10-07T14:14:26.397Z,6.77
2023-10-07T14:17:00.396Z,9.97
2023-10-07T14:19:31.529Z,14.53
2023-10-07T14:22:00.569Z,8.70
2023-10-07T14:24:31.005Z,12.27
2023-10-07T14:27:01.053Z,11.23
2023-10-07T14:29:29.708Z,7.50
2023-10-07T14:31:58.728Z,9.93
2023-10-07T14:34:27.746Z,14.83
2023-10-07T14:36:56.693Z,6.97
2023-10-07T14:39:28.665Z,9.60
2023-10-07T14:42:09.267Z,12.37
2023-10-07T14:44:38.185Z,12.03
2023-10-07T14:47:08.152Z,11.30
2023-10-07T14:49:37.707Z,7.37
2023-10-07T14:52:07.995Z,9.40
2023-10-07T14:54:37.222Z,8.50
2023-10-07T14:57:06.080Z,6.03
2023-10-07T14:59:36.707Z,6.93
2023-10-07T15:02:06.188Z,8.03
2023-10-07T15:04:35.744Z,8.60
2023-10-07T15:07:07.890Z,6.73
2023-10-07T15:09:37.892Z,7.37
2023-10-07T15:12:09.545Z,11.90
2023-10-07T15:14:40.059Z,10.33
2023-10-07T15:17:08.817Z,7.57
2023-10-07T15:19:38.050Z,12.60
2023-10-07T15:22:07.503Z,5.30
2023-10-07T15:24:38.360Z,12.37
2023-10-07T15:27:07.614Z,8.10
2023-10-07T15:29:36.258Z,10.93
2023-10-07T15:32:08.016Z,9.00
2023-10-07T15:34:37.404Z,8.97
2023-10-07T15:37:06.221Z,6.47
2023-10-07T15:39:36.137Z,9.93
2023-10-07T15:42:10.035Z,7.63
2023-10-07T15:44:38.827Z,8.17
2023-10-07T15:47:10.183Z,9.60
2023-10-07T15:49:38.927Z,11.40
2023-10-07T15:52:08.799Z,9.33
2023-10-07T15:54:37.923Z,10.23
2023-10-07T15:57:06.615Z,7.87
2023-10-07T15:59:35.742Z,13.03
2023-10-07T16:02:06.761Z,8.57
2023-10-07T16:04:37.589Z,12.70
2023-10-07T16:07:06.874Z,10.23
2023-10-07T16:09:36.112Z,7.77
2023-10-07T16:12:05.195Z,7.93
2023-10-07T16:14:35.753Z,11.77
2023-10-07T16:17:06.689Z,7.50
2023-10-07T16:19:39.217Z,11.13
2023-10-07T16:22:08.106Z,10.87
2023-10-07T16:24:36.840Z,11.70
2023-10-07T16:27:05.693Z,9.03
2023-10-07T16:29:34.808Z,9.80
2023-10-07T16:32:03.462Z,15.07
2023-10-07T16:34:32.259Z,8.97
2023-10-07T16:37:02.483Z,9.27
2023-10-07T16:39:31.353Z,11.57
2023-10-07T16:42:00.282Z,9.67
2023-10-07T16:44:29.003Z,8.53
2023-10-07T16:47:00.478Z,11.30
2023-10-07T16:49:29.259Z,10.63
2023-10-07T16:51:58.142Z,11.30
2023-10-07T16:54:28.183Z,6.90
2023-10-07T16:56:58.436Z,11.47
2023-10-07T16:59:27.286Z,11.63
2023-10-07T17:01:57.557Z,11.90
2023-10-07T17:04:26.953Z,12.37
2023-10-07T17:06:56.019Z,5.50
2023-10-07T17:09:25.228Z,14.27
2023-10-07T17:11:55.599Z,10.20
2023-10-07T17:14:24.418Z,15.33
2023-10-07T17:16:54.303Z,15.43
2023-10-07T17:19:23.239Z,10.87
2023-10-07T17:21:51.965Z,10.37
2023-10-07T17:24:20.548Z,14.30
2023-10-07T17:26:49.221Z,11.30
2023-10-07T17:29:20.707Z,15.90
2023-10-07T17:31:51.170Z,15.00
2023-10-07T17:34:20.321Z,11.50
2023-10-07T17:36:49.578Z,18.07
2023-10-07T17:39:18.656Z,15.97
2023-10-07T17:41:47.505Z,14.73
2023-10-07T17:44:16.352Z,9.20
2023-10-07T17:46:46.580Z,11.53
2023-10-07T17:49:15.558Z,8.40
2023-10-07T17:51:44.311Z,10.20
2023-10-07T17:54:16.990Z,14.70
2023-10-07T17:56:46.040Z,14.17
2023-10-07T17:59:15.062Z,16.73
2023-10-07T18:01:45.752Z,14.27
2023-10-07T18:04:15.473Z,14.70
2023-10-07T18:06:45.205Z,13.33
2023-10-07T18:09:14.096Z,11.80
2023-10-07T18:11:45.025Z,9.90
2023-10-07T18:14:13.932Z,12.57
2023-10-07T18:16:43.210Z,11.37
2023-10-07T18:19:13.566Z,27.90
2023-10-07T18:21:42.538Z,20.57
2023-10-07T18:24:11.592Z,10.27
2023-10-07T18:26:41.711Z,10.03
2023-10-07T18:29:11.096Z,18.77
2023-10-07T18:31:40.469Z,12.07
2023-10-07T18:34:09.208Z,16.50
2023-10-07T18:36:39.566Z,11.93
2023-10-07T18:39:10.621Z,11.87
2023-10-07T18:41:39.875Z,39.17
2023-10-07T18:44:09.155Z,24.83
2023-10-07T18:46:38.241Z,19.20
2023-10-07T18:49:07.773Z,13.73
2023-10-07T18:51:38.230Z,15.43
2023-10-07T18:54:07.453Z,12.13
2023-10-07T18:56:36.196Z,13.37
2023-10-07T18:59:05.099Z,15.73
2023-10-07T19:01:33.772Z,11.23
2023-10-07T19:04:02.995Z,9.13
2023-10-07T19:06:31.933Z,12.73
2023-10-07T19:09:03.037Z,8.70
2023-10-07T19:11:31.778Z,8.67
2023-10-07T19:14:00.775Z,11.60
2023-10-07T19:16:30.198Z,17.27
2023-10-07T19:18:59.261Z,14.70
2023-10-07T19:21:28.627Z,14.33
2023-10-07T19:23:58.756Z,11.90
2023-10-07T19:26:29.061Z,10.47
2023-10-07T19:28:57.723Z,15.13
2023-10-07T19:31:26.636Z,11.67
2023-10-07T19:33:58.140Z,13.40
2023-10-07T19:36:28.041Z,18.90
2023-10-07T19:38:57.028Z,12.73
2023-10-07T19:41:25.862Z,15.50
2023-10-07T19:43:57.374Z,13.37
2023-10-07T19:46:25.998Z,7.13
2023-10-07T19:48:54.800Z,14.13
2023-10-07T19:51:23.651Z,15.30
2023-10-07T19:53:52.255Z,12.37
2023-10-07T19:56:23.174Z,9.70
2023-10-07T19:58:52.399Z,11.97
2023-10-07T20:01:22.848Z,17.30
2023-10-07T20:03:56.156Z,12.97
2023-10-07T20:06:27.254Z,14.80
2023-10-07T20:08:56.058Z,12.63
2023-10-07T20:11:26.298Z,16.00
2023-10-07T20:13:55.589Z,11.43
2023-10-07T20:16:26.021Z,9.60
2023-10-07T20:18:56.205Z,9.10
2023-10-07T20:21:25.663Z,10.10
2023-10-07T20:23:54.515Z,7.67
2023-10-07T20:26:24.183Z,7.33
2023-10-07T20:28:52.908Z,8.43
2023-10-07T20:31:21.941Z,10.17
2023-10-07T20:33:53.541Z,9.87
2023-10-07T20:36:34.796Z,12.60
2023-10-07T20:39:06.414Z,7.73
2023-10-07T20:41:35.381Z,6.20
2023-10-07T20:44:04.362Z,6.00
2023-10-07T20:46:33.600Z,8.77
2023-10-07T20:49:03.970Z,11.13
2023-10-07T20:51:32.812Z,8.07
2023-10-07T20:54:01.350Z,5.53
2023-10-07T20:56:32.480Z,6.60
2023-10-07T20:59:02.320Z,4.33
2023-10-07T21:01:31.381Z,7.30
2023-10-07T21:04:00.013Z,8.97
2023-10-07T21:06:31.180Z,12.30
2023-10-07T21:08:59.989Z,7.63
2023-10-07T21:11:29.135Z,4.87
2023-10-07T21:13:59.615Z,8.00
2023-10-07T21:16:28.918Z,6.57
2023-10-07T21:19:00.327Z,7.03
2023-10-07T21:21:31.117Z,7.10
2023-10-07T21:23:59.980Z,3.80
2023-10-07T21:26:28.829Z,6.70
2023-10-07T21:28:59.829Z,8.03
2023-10-07T21:31:31.816Z,6.53
2023-10-07T21:34:00.564Z,3.87
2023-10-07T21:36:31.933Z,8.23
2023-10-07T21:39:00.889Z,6.07
2023-10-07T21:41:29.565Z,6.73
2023-10-07T21:43:58.157Z,5.47
2023-10-07T21:46:27.332Z,4.50
2023-10-07T21:48:56.600Z,6.17
2023-10-07T21:51:25.753Z,5.03
2023-10-07T21:53:55.923Z,4.77
2023-10-07T21:56:24.818Z,4.30
2023-10-07T21:58:54.105Z,3.93
2023-10-07T22:01:22.949Z,7.67
2023-10-07T22:03:52.113Z,6.60
2023-10-07T22:06:22.687Z,2.10
2023-10-07T22:08:51.614Z,6.93
2023-10-07T22:11:22.165Z,10.60
2023-10-07T22:13:50.822Z,4.87
2023-10-07T22:16:19.990Z,7.03
2023-10-07T22:18:49.114Z,6.10
2023-10-07T22:21:19.995Z,8.77
2023-10-07T22:23:50.553Z,2.80
2023-10-07T22:26:20.701Z,3.97
2023-10-07T22:28:51.721Z,6.23
2023-10-07T22:31:20.573Z,6.97
2023-10-07T22:33:50.950Z,4.67
2023-10-07T22:36:23.474Z,5.57
2023-10-07T22:38:55.915Z,5.80
2023-10-07T22:41:38.905Z,3.60
2023-10-07T22:44:22.993Z,4.50
2023-10-07T22:46:53.181Z,5.93
2023-10-07T22:49:23.286Z,6.20
2023-10-07T22:51:55.948Z,4.77
2023-10-07T22:54:33.626Z,5.27
2023-10-07T22:57:09.041Z,4.83
2023-10-07T22:59:40.064Z,4.37
2023-10-07T23:02:13.270Z,4.43
2023-10-07T23:04:46.964Z,11.33
2023-10-07T23:07:24.579Z,2.70
2023-10-07T23:09:54.727Z,6.57
2023-10-07T23:12:30.185Z,2.53
2023-10-07T23:15:09.385Z,3.13
2023-10-07T23:17:40.389Z,1.47
2023-10-07T23:20:26.908Z,2.33
2023-10-07T23:22:57.875Z,1.67
2023-10-07T23:25:31.625Z,2.77
2023-10-07T23:28:06.756Z,2.53
2023-10-07T23:30:40.540Z,1.37
2023-10-07T23:33:14.562Z,2.97
2023-10-07T23:35:43.702Z,2.60
2023-10-07T23:38:20.072Z,1.93
2023-10-07T23:40:53.200Z,2.23
2023-10-07T23:43:25.613Z,4.17
2023-10-07T23:45:55.847Z,1.80
2023-10-07T23:48:26.751Z,1.87
2023-10-07T23:50:59.588Z,2.57
2023-10-07T23:53:31.941Z,1.50
2023-10-07T23:56:08.559Z,1.67
2023-10-07T23:58:44.631Z,1.63
